Time;durP1;ratioP1;P1;durP2;ratioP2;P2;SDS_P1;SDS_P2;PMS_P1;PMS_P2;Temp;Humidity;BMP_temperature;BMP_pressure;BME280_temperature;BME280_humidity;BME280_pressure;Samples;Min_cycle;Max_cycle;Signal;HPM_P1;HPM_P2
2021/10/01 00:01:10;;;;;;;;;;;;;;;6.89;70.63;97246.66;5075507;28;19961;-86
2021/10/01 00:03:36;;;;;;;;;;;;;;;6.89;70.96;97244.06;5074971;28;19974;-88
2021/10/01 00:06:02;;;;;;;;;;;;;;;6.90;71.10;97248.28;5075309;28;20003;-87
2021/10/01 00:08:28;;;;;;;;;;;;;;;6.88;71.38;97247.63;5074972;28;20327;-87
2021/10/01 00:10:57;;;;;;;;;;;;;;;6.87;71.50;97240.81;5075080;28;19959;-85
2021/10/01 00:13:23;;;;;;;;;;;;;;;6.83;71.31;97240.34;5074933;28;19952;-85
2021/10/01 00:15:49;;;;;;;;;;;;;;;6.79;71.47;97238.25;5074953;28;19944;-85
2021/10/01 00:18:15;;;;;;;;;;;;;;;6.79;71.57;97238.25;5075507;28;19951;-86
2021/10/01 00:20:41;;;;;;;;;;;;;;;6.75;71.37;97229.97;5074786;28;20420;-86
2021/10/01 00:23:07;;;;;;;;;;;;;;;6.72;71.66;97225.13;5074800;28;20051;-86
2021/10/01 00:25:33;;;;;;;;;;;;;;;6.70;71.05;97227.09;5074650;28;20328;-83
2021/10/01 00:27:59;;;;;;;;;;;;;;;6.65;71.72;97222.38;5074768;28;20004;-86
2021/10/01 00:30:25;;;;;;;;;;;;;;;6.63;71.45;97224.34;5074559;28;19950;-84
2021/10/01 00:32:52;;;;;;;;;;;;;;;6.60;71.38;97223.91;5074833;28;20006;-85
2021/10/01 00:35:18;;;;;;;;;;;;;;;6.60;71.61;97223.91;5074599;28;19945;-83
2021/10/01 00:37:45;;;;;;;;;;;;;;;6.57;71.75;97217.22;5074817;28;19955;-82
2021/10/01 00:40:11;;;;;;;;;;;;;;;6.55;71.68;97215.78;5074421;28;20463;-82
2021/10/01 00:42:37;;;;;;;;;;;;;;;6.54;71.64;97217.56;5074166;28;19986;-82
2021/10/01 00:45:04;;;;;;;;;;;;;;;6.52;71.78;97211.72;5074509;28;19963;-82
2021/10/01 00:47:29;;;;;;;;;;;;;;;6.50;72.04;97209.28;5074885;28;20411;-86
2021/10/01 00:49:55;;;;;;;;;;;;;;;6.48;72.23;97207.84;5074422;28;19979;-86
2021/10/01 00:52:21;;;;;;;;;;;;;;;6.45;71.80;97206.41;5074361;28;19998;-85
2021/10/01 00:54:47;;;;;;;;;;;;;;;6.43;71.82;97203.16;5074203;28;19963;-83
2021/10/01 00:57:13;;;;;;;;;;;;;;;6.42;71.85;97198.91;5074252;28;19963;-84
2021/10/01 00:59:39;;;;;;;;;;;;;;;6.43;71.81;97202.34;5074064;28;20363;-85
2021/10/01 01:02:05;;;;;;;;;;;;;;;6.39;71.51;97198.47;5074148;28;19986;-85
2021/10/01 01:04:32;;;;;;;;;;;;;;;6.36;71.80;97191.78;5074017;28;19955;-84
2021/10/01 01:06:59;;;;;;;;;;;;;;;6.35;71.78;97186.75;5073860;28;19960;-86
2021/10/01 01:09:31;;;;;;;;;;;;;;;6.33;71.75;97181.72;5073807;28;19953;-90
2021/10/01 01:12:09;;;;;;;;;;;;;;;6.33;72.04;97186.13;5074580;28;19961;-91
2021/10/01 01:14:43;;;;;;;;;;;;;;;6.30;72.17;97182.88;5074038;28;19962;-90
2021/10/01 01:17:14;;;;;;;;;;;;;;;6.30;71.92;97179.47;5073943;28;19961;-92
2021/10/01 01:19:46;;;;;;;;;;;;;;;6.29;71.64;97177.84;5074140;28;20408;-91
2021/10/01 01:22:22;;;;;;;;;;;;;;;6.27;72.01;97177.19;5073775;28;19956;-90
2021/10/01 01:24:57;;;;;;;;;;;;;;;6.24;72.14;97174.94;5074007;28;19954;-90
2021/10/01 01:27:26;;;;;;;;;;;;;;;6.22;72.25;97172.50;5073468;28;19970;-86
2021/10/01 01:29:57;;;;;;;;;;;;;;;6.20;72.51;97158.03;5072894;28;19955;-85
2021/10/01 01:32:23;;;;;;;;;;;;;;;6.18;71.95;97154.81;5073681;28;19955;-89
2021/10/01 01:34:54;;;;;;;;;;;;;;;6.16;72.37;97154.16;5073654;28;19967;-87
2021/10/01 01:37:25;;;;;;;;;;;;;;;6.14;71.89;97151.72;5073654;28;19950;-87
2021/10/01 01:39:53;;;;;;;;;;;;;;;6.14;72.00;97150.91;5074089;28;20316;-87
2021/10/01 01:42:19;;;;;;;;;;;;;;;6.13;72.12;97151.88;5073396;28;19950;-90
2021/10/01 01:44:46;;;;;;;;;;;;;;;6.12;72.47;97151.09;5072351;28;19948;-87
2021/10/01 01:47:12;;;;;;;;;;;;;;;6.14;72.89;97141.31;5073272;28;20299;-90
2021/10/01 01:49:38;;;;;;;;;;;;;;;6.14;72.91;97146.50;5072029;28;19958;-90
2021/10/01 01:52:05;;;;;;;;;;;;;;;6.12;72.72;97143.28;5074005;28;19978;-90
2021/10/01 01:54:32;;;;;;;;;;;;;;;6.12;72.80;97140.66;5073477;28;20007;-91
2021/10/01 01:56:59;;;;;;;;;;;;;;;6.11;73.26;97136.47;5073465;28;20001;-91
2021/10/01 01:59:25;;;;;;;;;;;;;;;6.08;73.14;97136.78;5073581;28;19955;-91
2021/10/01 02:01:51;;;;;;;;;;;;;;;6.05;72.69;97131.94;5073858;28;19953;-91
2021/10/01 02:04:19;;;;;;;;;;;;;;;6.02;72.58;97130.47;5073329;28;19973;-86
2021/10/01 02:06:46;;;;;;;;;;;;;;;6.00;72.88;97123.81;5073442;28;19955;-86
2021/10/01 02:09:12;;;;;;;;;;;;;;;5.97;72.53;97118.97;5073251;28;19960;-86
2021/10/01 02:11:40;;;;;;;;;;;;;;;5.93;72.99;97128.88;5072995;28;19968;-84
2021/10/01 02:14:06;;;;;;;;;;;;;;;5.90;73.36;97131.81;5073138;28;20294;-88
2021/10/01 02:16:32;;;;;;;;;;;;;;;5.88;73.11;97115.56;5073311;28;19958;-89
2021/10/01 02:19:00;;;;;;;;;;;;;;;5.86;72.80;97107.91;5072836;28;19953;-84
2021/10/01 02:21:26;;;;;;;;;;;;;;;5.88;72.83;97110.34;5073275;28;19970;-86
2021/10/01 02:23:52;;;;;;;;;;;;;;;5.89;72.99;97109.38;5072790;28;19970;-88
2021/10/01 02:26:35;;;;;;;;;;;;;;;5.88;73.53;97107.75;5073112;28;19965;-86
2021/10/01 02:29:06;;;;;;;;;;;;;;;5.87;73.91;97108.72;5065791;28;20326;-89
2021/10/01 02:31:37;;;;;;;;;;;;;;;5.84;73.43;97096.88;5072915;28;19955;-88
2021/10/01 02:34:05;;;;;;;;;;;;;;;5.82;73.57;97103.22;5072985;28;19954;-86
2021/10/01 02:36:30;;;;;;;;;;;;;;;5.80;73.68;97094.78;5072994;28;19948;-91
2021/10/01 02:38:57;;;;;;;;;;;;;;;5.78;73.63;97094.94;5072732;28;20330;-86
2021/10/01 02:41:22;;;;;;;;;;;;;;;5.76;73.52;97091.72;5075329;28;19955;-87
2021/10/01 02:43:48;;;;;;;;;;;;;;;5.83;79.82;97084.00;5076949;28;20020;-88
2021/10/01 02:46:14;;;;;;;;;;;;;;;5.97;79.69;97079.91;5077067;28;19959;-87
2021/10/01 02:48:40;;;;;;;;;;;;;;;6.10;78.94;97074.94;5076549;28;19948;-86
2021/10/01 02:51:10;;;;;;;;;;;;;;;6.18;76.44;97074.06;5076613;28;20327;-87
2021/10/01 02:53:45;;;;;;;;;;;;;;;6.17;73.79;97072.44;5076559;28;19958;-86
2021/10/01 02:56:17;;;;;;;;;;;;;;;6.10;73.42;97072.31;5077119;28;20304;-92
2021/10/01 02:58:54;;;;;;;;;;;;;;;6.03;73.52;97072.22;5064952;28;19971;-86
2021/10/01 03:01:21;;;;;;;;;;;;;;;5.95;73.42;97074.88;5067288;28;19954;-87
2021/10/01 03:03:48;;;;;;;;;;;;;;;5.89;73.45;97070.31;5076257;28;20457;-87
2021/10/01 03:06:18;;;;;;;;;;;;;;;5.82;73.79;97075.41;5076709;28;19955;-88
2021/10/01 03:08:44;;;;;;;;;;;;;;;5.79;73.67;97077.53;5076587;28;20428;-86
2021/10/01 03:11:10;;;;;;;;;;;;;;;5.75;73.28;97078.84;5076140;28;20296;-85
2021/10/01 03:13:39;;;;;;;;;;;;;;;5.73;73.34;97080.81;5076227;28;19954;-88
2021/10/01 03:16:05;;;;;;;;;;;;;;;5.70;73.19;97081.97;5076327;28;19973;-87
2021/10/01 03:18:32;;;;;;;;;;;;;;;5.69;73.60;97081.19;5076080;28;19970;-92
2021/10/01 03:21:00;;;;;;;;;;;;;;;5.69;74.09;97081.19;5076282;28;19968;-84
2021/10/01 03:23:26;;;;;;;;;;;;;;;5.68;73.97;97070.94;5075956;28;19969;-90
2021/10/01 03:25:53;;;;;;;;;;;;;;;5.68;74.12;97070.94;5076153;28;20022;-87
2021/10/01 03:28:19;;;;;;;;;;;;;;;5.64;74.00;97067.03;5075800;28;19948;-87
2021/10/01 03:30:46;;;;;;;;;;;;;;;5.61;74.32;97067.41;5075879;28;19959;-83
2021/10/01 03:33:12;;;;;;;;;;;;;;;5.56;74.38;97064.50;5075667;28;19958;-86
2021/10/01 03:35:42;;;;;;;;;;;;;;;5.55;73.99;97068.09;5076780;28;20320;-87
2021/10/01 03:38:12;;;;;;;;;;;;;;;5.54;74.51;97058.63;5075805;28;19961;-92
2021/10/01 03:40:43;;;;;;;;;;;;;;;5.53;74.66;97059.63;5076043;28;19956;-90
2021/10/01 03:43:09;;;;;;;;;;;;;;;5.51;74.53;97053.78;5074356;28;19971;-88
2021/10/01 03:45:35;;;;;;;;;;;;;;;5.48;74.33;97053.16;5075734;28;19949;-87
2021/10/01 03:48:03;;;;;;;;;;;;;;;5.48;74.26;97049.72;5075418;28;20045;-85
2021/10/01 03:50:33;;;;;;;;;;;;;;;5.45;74.62;97043.06;5075210;28;19985;-85
2021/10/01 03:53:00;;;;;;;;;;;;;;;5.43;74.32;97049.44;5075137;28;20409;-86
2021/10/01 03:55:26;;;;;;;;;;;;;;;5.40;74.78;97041.97;5075473;28;20322;-88
2021/10/01 03:57:52;;;;;;;;;;;;;;;5.36;75.37;97038.09;5075457;28;19955;-89
2021/10/01 04:00:18;;;;;;;;;;;;;;;5.34;74.92;97048.66;5075291;28;19952;-86
2021/10/01 04:02:45;;;;;;;;;;;;;;;5.34;74.89;97038.25;5075033;28;19954;-91
2021/10/01 04:05:11;;;;;;;;;;;;;;;5.34;74.69;97033.06;5075119;28;19982;-86
2021/10/01 04:07:37;;;;;;;;;;;;;;;5.35;74.48;97032.06;5075153;28;19955;-89
2021/10/01 04:10:04;;;;;;;;;;;;;;;5.34;74.73;97025.25;5075201;28;20412;-85
2021/10/01 04:12:30;;;;;;;;;;;;;;;5.32;74.67;97032.41;5074942;28;20334;-89
2021/10/01 04:14:55;;;;;;;;;;;;;;;5.32;74.14;97022.00;5075396;28;19965;-91
2021/10/01 04:17:21;;;;;;;;;;;;;;;5.31;74.60;97028.19;5075043;28;19957;-88
2021/10/01 04:19:49;;;;;;;;;;;;;;;5.29;74.67;97027.53;5075155;28;20007;-86
2021/10/01 04:22:15;;;;;;;;;;;;;;;5.29;74.26;97030.16;5075052;28;19969;-86
2021/10/01 04:24:41;;;;;;;;;;;;;;;5.29;74.71;97022.34;5074661;28;19970;-89
2021/10/01 04:27:07;;;;;;;;;;;;;;;5.27;74.72;97025.13;5073435;28;19963;-85
2021/10/01 04:29:33;;;;;;;;;;;;;;;5.26;74.68;97017.50;5074979;28;19947;-87
2021/10/01 04:32:01;;;;;;;;;;;;;;;5.24;74.52;97030.66;5074725;28;20008;-90
2021/10/01 04:34:29;;;;;;;;;;;;;;;5.22;75.25;97026.63;5074982;28;19950;-85
2021/10/01 04:36:55;;;;;;;;;;;;;;;5.17;74.32;97026.31;5072985;28;19954;-87
2021/10/01 04:39:21;;;;;;;;;;;;;;;5.13;74.35;97031.03;5074573;28;19955;-87
2021/10/01 04:41:47;;;;;;;;;;;;;;;5.09;74.73;97021.97;5074267;28;20026;-87
2021/10/01 04:44:13;;;;;;;;;;;;;;;5.10;74.75;97026.16;5074853;28;19966;-87
2021/10/01 04:46:38;;;;;;;;;;;;;;;5.09;74.73;97033.16;5074324;28;19965;-89
2021/10/01 04:49:04;;;;;;;;;;;;;;;5.09;74.23;97019.34;5074265;28;20414;-87
2021/10/01 04:51:30;;;;;;;;;;;;;;;5.07;73.98;97021.31;5074258;28;20073;-87
2021/10/01 04:53:56;;;;;;;;;;;;;;;5.08;74.00;97028.13;5074294;28;19983;-88
2021/10/01 04:56:22;;;;;;;;;;;;;;;5.07;73.76;97032.53;5073955;28;20452;-88
2021/10/01 04:58:50;;;;;;;;;;;;;;;5.07;74.92;97032.53;5073379;28;21613;-88
2021/10/01 05:01:16;;;;;;;;;;;;;;;5.04;75.08;97039.84;5073970;28;19964;-88
2021/10/01 05:03:42;;;;;;;;;;;;;;;5.00;74.96;97034.19;5073432;28;19961;-87
2021/10/01 05:06:08;;;;;;;;;;;;;;;5.00;74.54;97035.97;5073885;28;19964;-87
2021/10/01 05:08:33;;;;;;;;;;;;;;;5.01;75.34;97029.78;5073943;28;19987;-87
2021/10/01 05:10:59;;;;;;;;;;;;;;;5.02;75.33;97036.63;5073865;28;19995;-87
2021/10/01 05:13:25;;;;;;;;;;;;;;;5.03;75.60;97041.63;5074024;28;20367;-85
2021/10/01 05:15:51;;;;;;;;;;;;;;;5.05;75.64;97031.06;5074359;28;19954;-87
2021/10/01 05:18:18;;;;;;;;;;;;;;;5.07;75.14;97035.13;5074067;28;20445;-88
2021/10/01 05:20:44;;;;;;;;;;;;;;;5.08;76.05;97033.31;5074034;28;19953;-86
2021/10/01 05:23:10;;;;;;;;;;;;;;;5.09;75.45;97030.56;5073448;28;20431;-86
2021/10/01 05:25:36;;;;;;;;;;;;;;;5.12;75.54;97039.00;5073646;28;20005;-86
2021/10/01 05:28:02;;;;;;;;;;;;;;;5.15;75.26;97038.69;5073666;28;20458;-86
2021/10/01 05:30:28;;;;;;;;;;;;;;;5.16;75.47;97035.88;5073741;28;19943;-86
2021/10/01 05:32:54;;;;;;;;;;;;;;;5.18;75.32;97033.13;5073886;28;19952;-86
2021/10/01 05:35:19;;;;;;;;;;;;;;;5.19;75.28;97030.38;5072587;28;19960;-85
2021/10/01 05:37:48;;;;;;;;;;;;;;;5.21;75.01;97020.59;5073896;28;20041;-90
2021/10/01 05:40:14;;;;;;;;;;;;;;;5.23;74.79;97025.66;5073668;28;19957;-90
2021/10/01 05:42:40;;;;;;;;;;;;;;;5.25;74.49;97026.28;5073885;28;19997;-90
2021/10/01 05:45:07;;;;;;;;;;;;;;;5.28;74.55;97028.53;5073818;28;20017;-91
2021/10/01 05:47:34;;;;;;;;;;;;;;;5.30;74.57;97029.19;5074403;28;19954;-91
2021/10/01 05:50:04;;;;;;;;;;;;;;;5.34;74.36;97027.88;5073827;28;19986;-92
2021/10/01 05:55:09;;;;;;;;;;;;;;;5.45;75.24;97016.25;5073727;28;19954;-91
2021/10/01 05:57:35;;;;;;;;;;;;;;;5.54;74.93;97019.63;5074252;28;19954;-91
2021/10/01 06:00:03;;;;;;;;;;;;;;;5.67;74.74;97025.88;5074094;28;20312;-90
2021/10/01 06:02:29;;;;;;;;;;;;;;;5.84;74.29;97034.41;5073844;28;19960;-89
2021/10/01 06:04:55;;;;;;;;;;;;;;;6.01;74.15;97029.09;5073439;28;19975;-89
2021/10/01 06:07:21;;;;;;;;;;;;;;;6.26;73.86;97034.94;5062996;28;19958;-89
2021/10/01 06:09:47;;;;;;;;;;;;;;;6.59;73.24;97035.44;5072421;28;19950;-89
2021/10/01 06:12:14;;;;;;;;;;;;;;;6.94;72.53;97021.88;5073933;28;20315;-90
2021/10/01 06:14:40;;;;;;;;;;;;;;;7.19;72.12;97014.59;5074843;28;20395;-90
2021/10/01 06:17:07;;;;;;;;;;;;;;;7.42;71.56;97020.47;5077780;28;19951;-90
2021/10/01 06:19:34;;;;;;;;;;;;;;;7.60;70.61;97019.25;5077718;28;19959;-91
2021/10/01 06:22:04;;;;;;;;;;;;;;;7.70;70.08;97015.34;5077380;28;19962;-91
2021/10/01 06:24:30;;;;;;;;;;;;;;;7.74;69.65;97023.63;5077498;28;19975;-90
2021/10/01 06:26:56;;;;;;;;;;;;;;;7.81;69.98;97013.25;5077448;28;20317;-91
2021/10/01 06:29:22;;;;;;;;;;;;;;;7.85;69.71;97004.03;5077536;28;19962;-90
2021/10/01 06:31:48;;;;;;;;;;;;;;;7.84;69.83;97007.66;5077114;28;19955;-88
2021/10/01 06:34:14;;;;;;;;;;;;;;;7.86;69.77;97001.25;5077236;28;20004;-90
2021/10/01 06:36:40;;;;;;;;;;;;;;;7.92;69.59;97007.53;5077747;28;19954;-90
2021/10/01 06:39:07;;;;;;;;;;;;;;;8.00;69.54;97002.19;5077187;28;19952;-90
2021/10/01 06:41:33;;;;;;;;;;;;;;;8.17;69.43;97012.34;5077020;28;19959;-90
2021/10/01 06:44:02;;;;;;;;;;;;;;;8.26;69.07;97011.25;5077737;28;19976;-90
2021/10/01 06:46:35;;;;;;;;;;;;;;;8.37;69.00;97002.88;5077216;28;20331;-89
2021/10/01 07:22:35;;;;;;;;;;;;;;;8.85;68.01;97015.28;5075325;28;19963;-88
2021/10/01 08:19:28;;;;;;;;;;;;;;;11.58;62.85;96955.78;5075593;28;19953;-85
2021/10/01 08:21:55;;;;;;;;;;;;;;;11.53;61.55;96942.50;5074348;28;19968;-85
2021/10/01 08:24:21;;;;;;;;;;;;;;;11.53;63.05;96955.63;5074889;28;20340;-85
2021/10/01 08:26:48;;;;;;;;;;;;;;;11.46;63.06;96946.97;5075293;28;20317;-85
2021/10/01 08:29:14;;;;;;;;;;;;;;;11.52;62.17;96940.88;5074922;28;19962;-85
2021/10/01 08:31:40;;;;;;;;;;;;;;;11.47;62.61;96942.56;5075345;28;19956;-84
2021/10/01 08:34:06;;;;;;;;;;;;;;;11.50;65.03;96953.41;5074985;28;20425;-85
2021/10/01 08:36:32;;;;;;;;;;;;;;;11.65;64.23;96955.75;5075204;28;19956;-85
2021/10/01 08:38:58;;;;;;;;;;;;;;;11.75;62.92;96939.53;5074670;28;19974;-85
2021/10/01 08:41:24;;;;;;;;;;;;;;;11.86;63.62;96941.47;5074798;28;20328;-84
2021/10/01 08:43:50;;;;;;;;;;;;;;;11.98;62.84;96936.34;5074376;28;20009;-84
2021/10/01 08:46:17;;;;;;;;;;;;;;;12.09;62.44;96919.88;5075352;28;19998;-85
2021/10/01 08:48:43;;;;;;;;;;;;;;;12.17;60.69;96906.47;5074688;28;19961;-84
2021/10/01 08:51:10;;;;;;;;;;;;;;;12.17;60.18;96897.78;5074465;28;19984;-85
2021/10/01 08:53:36;;;;;;;;;;;;;;;12.16;60.68;96901.44;5074659;28;19968;-85
2021/10/01 08:56:03;;;;;;;;;;;;;;;12.16;60.50;96902.25;5074295;28;20321;-84
2021/10/01 08:58:29;;;;;;;;;;;;;;;12.18;61.04;96897.56;5074522;28;19970;-84
2021/10/01 09:00:58;;;;;;;;;;;;;;;12.26;61.58;96906.19;5074327;28;19953;-84
2021/10/01 09:03:24;;;;;;;;;;;;;;;12.30;60.70;96899.47;5074336;28;19954;-84
2021/10/01 09:05:50;;;;;;;;;;;;;;;12.35;60.45;96895.19;5074270;28;19981;-84
2021/10/01 09:08:17;;;;;;;;;;;;;;;12.37;60.58;96895.75;5073994;28;19958;-84
2021/10/01 09:11:08;;;;;;;;;;;;;;;12.38;60.05;96892.09;5074867;28;19950;-84
2021/10/01 09:13:34;;;;;;;;;;;;;;;12.39;60.23;96890.28;5074126;28;19978;-84
2021/10/01 09:16:03;;;;;;;;;;;;;;;12.43;60.19;96886.22;5074175;28;20422;-83
2021/10/01 09:18:30;;;;;;;;;;;;;;;12.47;61.33;96903.13;5074240;28;20430;-84
2021/10/01 09:21:22;;;;;;;;;;;;;;;12.50;61.35;96889.56;5074529;28;19956;-84
2021/10/01 09:23:56;;;;;;;;;;;;;;;12.49;61.16;96877.41;5072659;28;19956;-84
2021/10/01 09:26:22;;;;;;;;;;;;;;;12.51;63.21;96890.34;5073932;28;19955;-84
2021/10/01 09:28:53;;;;;;;;;;;;;;;12.61;61.81;96885.38;5073783;28;19958;-83
2021/10/01 09:31:51;;;;;;;;;;;;;;;12.64;62.36;96887.59;5073755;28;19957;-85
2021/10/01 09:34:23;;;;;;;;;;;;;;;12.71;62.20;96875.16;5072921;28;19958;-83
2021/10/01 09:36:59;;;;;;;;;;;;;;;12.75;61.80;96875.53;5073880;28;19967;-83
2021/10/01 09:39:27;;;;;;;;;;;;;;;12.74;62.63;96879.97;5073891;28;19952;-83
2021/10/01 09:41:52;;;;;;;;;;;;;;;12.77;62.18;96865.59;5073574;28;19952;-83
2021/10/01 09:44:19;;;;;;;;;;;;;;;12.85;62.54;96867.09;5074019;28;19971;-83
2021/10/01 09:46:47;;;;;;;;;;;;;;;12.94;61.42;96848.16;5073772;28;19952;-83
2021/10/01 09:49:15;;;;;;;;;;;;;;;13.04;62.88;96862.59;5073873;28;19954;-83
2021/10/01 09:51:51;;;;;;;;;;;;;;;13.10;62.43;96853.81;5073519;28;20336;-83
2021/10/01 09:54:20;;;;;;;;;;;;;;;13.22;64.16;96867.81;5073429;28;19952;-82
2021/10/01 09:56:46;;;;;;;;;;;;;;;13.33;62.29;96838.13;5073889;28;19967;-83
2021/10/01 09:59:13;;;;;;;;;;;;;;;13.39;63.24;96849.56;5074027;28;20315;-82
2021/10/01 10:01:58;;;;;;;;;;;;;;;13.46;63.58;96845.03;5073784;28;19953;-80
2021/10/01 10:04:25;;;;;;;;;;;;;;;13.53;61.70;96826.47;5073598;28;19972;-83
2021/10/01 10:06:50;;;;;;;;;;;;;;;13.58;62.73;96839.75;5072102;28;20556;-83
2021/10/01 10:09:28;;;;;;;;;;;;;;;13.65;62.83;96829.94;5073520;28;19960;-83
2021/10/01 10:11:54;;;;;;;;;;;;;;;13.74;62.51;96825.91;5073751;28;19959;-83
2021/10/01 10:14:20;;;;;;;;;;;;;;;13.82;62.22;96827.41;5073420;28;20420;-83
2021/10/01 10:16:46;;;;;;;;;;;;;;;13.90;61.69;96811.25;5073478;28;19963;-83
2021/10/01 10:19:20;;;;;;;;;;;;;;;14.02;63.39;96835.78;5073218;28;20058;-83
2021/10/01 10:21:46;;;;;;;;;;;;;;;14.12;61.72;96808.03;5073759;28;19962;-83
2021/10/01 10:24:12;;;;;;;;;;;;;;;14.23;59.51;96787.94;5073306;28;19976;-83
2021/10/01 10:26:38;;;;;;;;;;;;;;;14.32;62.07;96810.28;5073657;28;19964;-83
2021/10/01 10:29:05;;;;;;;;;;;;;;;14.43;61.03;96804.19;5073247;28;20367;-83
2021/10/01 10:31:32;;;;;;;;;;;;;;;14.52;60.78;96802.78;5073750;28;19967;-83
2021/10/01 10:33:58;;;;;;;;;;;;;;;14.64;61.43;96810.72;5073166;28;19954;-83
2021/10/01 10:36:47;;;;;;;;;;;;;;;14.78;60.88;96792.75;5073860;28;20334;-83
2021/10/01 10:39:15;;;;;;;;;;;;;;;14.98;59.20;96781.75;5073222;28;19964;-82
2021/10/01 10:41:42;;;;;;;;;;;;;;;15.14;62.08;96802.13;5073217;28;19988;-82
2021/10/01 10:44:08;;;;;;;;;;;;;;;15.29;59.20;96772.50;5072936;28;19971;-85
2021/10/01 10:46:34;;;;;;;;;;;;;;;15.39;58.13;96761.28;5073663;28;19959;-83
2021/10/01 10:49:21;;;;;;;;;;;;;;;15.51;58.68;96764.66;5072924;28;20041;-83
2021/10/01 10:52:16;;;;;;;;;;;;;;;15.67;59.66;96772.81;5072870;28;19977;-83
2021/10/01 10:54:44;;;;;;;;;;;;;;;15.92;58.41;96764.47;5072655;28;20352;-83
2021/10/01 10:57:17;;;;;;;;;;;;;;;16.14;56.97;96738.03;5072830;28;20016;-83
2021/10/01 10:59:43;;;;;;;;;;;;;;;16.28;56.17;96730.53;5073445;28;19953;-83
2021/10/01 11:02:19;;;;;;;;;;;;;;;16.35;56.51;96726.63;5074940;28;19960;-82
2021/10/01 11:04:49;;;;;;;;;;;;;;;16.49;56.26;96729.72;5076608;28;19973;-82
2021/10/01 11:07:33;;;;;;;;;;;;;;;16.71;56.96;96736.81;5076395;28;19962;-82
2021/10/01 11:10:18;;;;;;;;;;;;;;;16.95;53.90;96698.41;5076581;28;19960;-83
2021/10/01 11:12:44;;;;;;;;;;;;;;;17.14;57.06;96722.66;5076820;28;19953;-82
2021/10/01 11:15:14;;;;;;;;;;;;;;;17.24;54.23;96706.84;5076402;28;19999;-82
2021/10/01 11:17:40;;;;;;;;;;;;;;;17.28;52.29;96693.88;5076305;28;19961;-82
2021/10/01 11:20:06;;;;;;;;;;;;;;;17.37;53.87;96702.97;5076452;28;19956;-81
2021/10/01 11:22:39;;;;;;;;;;;;;;;17.45;54.31;96702.50;5076330;28;19961;-81
2021/10/01 11:25:11;;;;;;;;;;;;;;;17.52;53.83;96709.44;5076229;28;19964;-81
2021/10/01 11:28:01;;;;;;;;;;;;;;;17.66;54.13;96707.94;5076311;28;19963;-81
2021/10/01 11:30:28;;;;;;;;;;;;;;;17.86;53.67;96696.66;5076829;28;19956;-81
2021/10/01 11:32:56;;;;;;;;;;;;;;;18.04;51.62;96685.59;5076222;28;19959;-81
2021/10/01 11:35:22;;;;;;;;;;;;;;;18.23;50.77;96672.66;5076172;28;19955;-81
2021/10/01 11:37:50;;;;;;;;;;;;;;;18.36;48.92;96658.06;5075950;28;20415;-80
2021/10/01 11:40:19;;;;;;;;;;;;;;;18.49;48.49;96679.88;5076222;28;19958;-81
2021/10/01 11:42:47;;;;;;;;;;;;;;;18.55;48.03;96689.44;5075866;28;19954;-81
2021/10/01 11:45:14;;;;;;;;;;;;;;;18.69;50.53;96708.31;5076042;28;20419;-80
2021/10/01 11:47:49;;;;;;;;;;;;;;;18.79;49.45;96692.44;5075794;28;19956;-81
2021/10/01 11:50:15;;;;;;;;;;;;;;;18.95;46.36;96677.31;5076195;28;19985;-80
2021/10/01 11:52:44;;;;;;;;;;;;;;;19.03;44.63;96674.13;5075869;28;20435;-80
2021/10/01 11:55:12;;;;;;;;;;;;;;;19.05;45.76;96675.44;5075672;28;19987;-80
2021/10/01 11:57:39;;;;;;;;;;;;;;;19.18;47.33;96682.06;5075566;28;19963;-80
2021/10/01 12:00:09;;;;;;;;;;;;;;;19.32;48.32;96689.50;5075632;28;19948;-80
2021/10/01 12:02:42;;;;;;;;;;;;;;;19.37;45.91;96660.25;5076080;28;19955;-80
2021/10/01 12:05:33;;;;;;;;;;;;;;;19.35;42.21;96673.03;5075543;28;19969;-80
2021/10/01 12:08:10;;;;;;;;;;;;;;;19.26;43.28;96678.09;5075730;28;19962;-80
2021/10/01 12:10:40;;;;;;;;;;;;;;;19.26;44.48;96673.56;5075614;28;19958;-80
2021/10/01 12:13:06;;;;;;;;;;;;;;;19.29;45.35;96672.22;5064204;28;20334;-80
2021/10/01 12:15:36;;;;;;;;;;;;;;;19.33;45.87;96669.84;5075499;28;19958;-80
2021/10/01 12:18:03;;;;;;;;;;;;;;;19.43;46.01;96675.94;5075290;28;19961;-80
2021/10/01 12:20:29;;;;;;;;;;;;;;;19.55;44.98;96666.84;5075613;28;20033;-80
2021/10/01 12:22:55;;;;;;;;;;;;;;;19.65;43.31;96642.88;5075627;28;20069;-79
2021/10/01 12:25:25;;;;;;;;;;;;;;;19.76;45.72;96659.63;5075123;28;19975;-80
2021/10/01 12:27:51;;;;;;;;;;;;;;;19.77;44.41;96643.41;5075081;28;20438;-80
2021/10/01 12:30:17;;;;;;;;;;;;;;;19.81;43.23;96644.47;5074874;28;19967;-80
2021/10/01 12:32:47;;;;;;;;;;;;;;;19.74;44.96;96659.94;5075204;28;19968;-80
2021/10/01 12:35:13;;;;;;;;;;;;;;;19.85;44.04;96655.38;5074853;28;19968;-80
2021/10/01 12:37:40;;;;;;;;;;;;;;;19.96;42.90;96632.16;5074911;28;19954;-80
2021/10/01 12:40:07;;;;;;;;;;;;;;;20.06;43.08;96629.47;5074885;28;19963;-80
2021/10/01 12:42:37;;;;;;;;;;;;;;;20.16;44.06;96642.72;5062326;28;20348;-80
2021/10/01 12:45:03;;;;;;;;;;;;;;;20.20;44.99;96642.94;5056552;28;19989;-79
2021/10/01 12:47:32;;;;;;;;;;;;;;;20.19;42.92;96642.16;5075130;28;20411;-80
2021/10/01 12:49:59;;;;;;;;;;;;;;;20.22;44.80;96644.28;5074813;28;19992;-79
2021/10/01 12:52:26;;;;;;;;;;;;;;;20.29;44.79;96630.66;5074961;28;19969;-79
2021/10/01 12:54:54;;;;;;;;;;;;;;;20.34;43.50;96627.97;5074861;28;19955;-80
2021/10/01 12:57:20;;;;;;;;;;;;;;;20.44;44.21;96633.22;5074451;28;19966;-79
2021/10/01 12:59:48;;;;;;;;;;;;;;;20.55;43.84;96625.16;5074386;28;19965;-80
2021/10/01 13:02:16;;;;;;;;;;;;;;;20.54;41.89;96612.94;5074499;28;19955;-80
2021/10/01 13:04:46;;;;;;;;;;;;;;;20.50;43.51;96609.22;5074279;28;19974;-80
2021/10/01 13:07:21;;;;;;;;;;;;;;;20.50;43.14;96603.91;5074017;28;19968;-80
2021/10/01 13:09:47;;;;;;;;;;;;;;;20.50;44.85;96615.34;5074351;28;19959;-80
2021/10/01 13:12:29;;;;;;;;;;;;;;;20.60;44.66;96603.84;5074042;28;20409;-80
2021/10/01 13:15:33;;;;;;;;;;;;;;;20.58;44.16;96596.13;5074351;28;19951;-80
2021/10/01 13:17:59;;;;;;;;;;;;;;;20.59;44.63;96589.72;5051806;28;19962;-80
2021/10/01 13:20:26;;;;;;;;;;;;;;;20.70;44.86;96582.44;5052375;28;19993;-80
2021/10/01 13:22:53;;;;;;;;;;;;;;;20.86;43.88;96573.25;5062629;28;19969;-80
2021/10/01 13:25:26;;;;;;;;;;;;;;;20.95;43.39;96568.09;5073087;28;19972;-80
2021/10/01 13:27:53;;;;;;;;;;;;;;;20.97;43.59;96570.47;5073965;28;19965;-80
2021/10/01 13:30:20;;;;;;;;;;;;;;;20.99;42.09;96555.00;5073934;28;19973;-80
2021/10/01 13:32:46;;;;;;;;;;;;;;;21.00;43.36;96564.59;5073725;28;19973;-80
2021/10/01 13:35:12;;;;;;;;;;;;;;;21.03;43.06;96564.81;5073626;28;19967;-81
2021/10/01 13:37:38;;;;;;;;;;;;;;;21.01;42.61;96558.19;5074104;28;19964;-80
2021/10/01 13:40:05;;;;;;;;;;;;;;;21.07;42.61;96555.19;5073496;28;19971;-80
2021/10/01 13:42:30;;;;;;;;;;;;;;;21.12;42.80;96566.88;5073868;28;20330;-80
2021/10/01 13:44:56;;;;;;;;;;;;;;;21.14;43.49;96562.84;5073984;28;19980;-80
2021/10/01 13:47:22;;;;;;;;;;;;;;;21.17;42.68;96554.28;5073675;28;19964;-80
2021/10/01 13:49:48;;;;;;;;;;;;;;;21.25;42.06;96547.50;5073630;28;20320;-79
2021/10/01 13:52:14;;;;;;;;;;;;;;;21.28;42.26;96542.41;5074122;28;19970;-80
2021/10/01 13:54:40;;;;;;;;;;;;;;;21.29;42.09;96546.69;5073648;28;19967;-80
2021/10/01 13:57:06;;;;;;;;;;;;;;;21.31;42.46;96548.25;5073710;28;19980;-80
2021/10/01 13:59:32;;;;;;;;;;;;;;;21.34;43.05;96545.84;5073250;28;20367;-80
2021/10/01 14:01:58;;;;;;;;;;;;;;;21.34;41.30;96534.38;5073475;28;20003;-80
2021/10/01 14:04:24;;;;;;;;;;;;;;;21.39;42.86;96534.31;5073587;28;19955;-79
2021/10/01 14:06:50;;;;;;;;;;;;;;;21.37;41.81;96528.44;5073400;28;19993;-79
2021/10/01 14:09:16;;;;;;;;;;;;;;;21.37;42.74;96533.78;5073711;28;19961;-79
2021/10/01 14:11:42;;;;;;;;;;;;;;;21.39;42.29;96529.75;5073343;28;20315;-79
2021/10/01 14:14:08;;;;;;;;;;;;;;;21.37;41.34;96526.56;5073864;28;19969;-79
2021/10/01 14:16:34;;;;;;;;;;;;;;;21.30;41.78;96531.47;5073550;28;20302;-79
2021/10/01 14:19:00;;;;;;;;;;;;;;;21.23;41.06;96517.66;5073346;28;20015;-80
2021/10/01 14:21:26;;;;;;;;;;;;;;;21.19;42.41;96533.47;5073769;28;19972;-79
2021/10/01 14:23:52;;;;;;;;;;;;;;;21.21;42.76;96533.97;5073593;28;19994;-79
2021/10/01 14:26:18;;;;;;;;;;;;;;;21.21;42.55;96531.31;5073245;28;19977;-79
2021/10/01 14:28:45;;;;;;;;;;;;;;;21.23;42.98;96536.34;5073149;28;19956;-79